Time;durP1;ratioP1;P1;durP2;ratioP2;P2;SDS_P1;SDS_P2;PMS_P1;PMS_P2;Temp;Humidity;BMP_temperature;BMP_pressure;BME280_temperature;BME280_humidity;BME280_pressure;Samples;Min_cycle;Max_cycle;Signal;HPM_P1;HPM_P2
2021/08/22 00:01:14;;;;;;;7.60;3.60;;;23.70;99.90;;;;;;4997027;28;20721;-76
2021/08/22 00:03:41;;;;;;;4.75;3.40;;;23.60;99.90;;;;;;4997168;28;20835;-75
2021/08/22 00:06:08;;;;;;;4.95;3.05;;;23.60;99.90;;;;;;5000986;28;20375;-76
2021/08/22 00:08:38;;;;;;;3.65;2.80;;;23.60;99.90;;;;;;5003675;28;20235;-76
2021/08/22 00:11:05;;;;;;;3.65;3.35;;;23.50;99.90;;;;;;4994386;28;20235;-77
2021/08/22 00:13:33;;;;;;;3.20;2.90;;;23.50;99.90;;;;;;5007888;28;20290;-76
2021/08/22 00:16:00;;;;;;;3.15;2.85;;;23.50;99.90;;;;;;4999759;28;20287;-76
2021/08/22 00:18:29;;;;;;;3.05;2.75;;;23.50;99.90;;;;;;4998887;28;20269;-76
2021/08/22 00:20:56;;;;;;;3.33;2.65;;;23.50;99.90;;;;;;5004225;28;20862;-76
2021/08/22 00:23:23;;;;;;;3.00;2.80;;;23.50;99.90;;;;;;4997357;28;20231;-77
2021/08/22 00:25:51;;;;;;;2.67;2.47;;;23.50;99.90;;;;;;5003187;28;20235;-76
2021/08/22 00:28:18;;;;;;;2.90;2.70;;;23.50;99.90;;;;;;4997937;28;20231;-75
2021/08/22 00:30:45;;;;;;;3.40;3.10;;;23.50;99.90;;;;;;4998356;28;20804;-75
2021/08/22 00:33:12;;;;;;;5.50;3.05;;;23.50;99.90;;;;;;4999164;28;20251;-76
2021/08/22 00:35:41;;;;;;;3.10;2.80;;;23.50;99.90;;;;;;4999444;28;20224;-76
2021/08/22 00:38:08;;;;;;;2.78;2.58;;;23.50;99.90;;;;;;4998697;28;20224;-76
2021/08/22 00:40:35;;;;;;;3.15;2.85;;;23.50;99.90;;;;;;5000288;28;20251;-76
2021/08/22 00:43:03;;;;;;;2.88;2.65;;;23.40;99.90;;;;;;4999252;28;20586;-76
2021/08/22 00:45:30;;;;;;;3.17;2.92;;;23.50;99.90;;;;;;4996225;28;20290;-76
2021/08/22 00:47:57;;;;;;;2.92;2.63;;;23.40;99.90;;;;;;4997399;28;20731;-75
2021/08/22 00:50:25;;;;;;;3.15;2.85;;;23.40;99.90;;;;;;5000815;28;20220;-76
2021/08/22 00:52:54;;;;;;;3.28;2.95;;;23.40;99.90;;;;;;5000046;28;20711;-76
2021/08/22 00:55:22;;;;;;;3.03;2.78;;;23.40;99.90;;;;;;4999540;28;20698;-74
2021/08/22 00:57:49;;;;;;;2.55;2.35;;;23.40;99.90;;;;;;4999222;28;20244;-75
2021/08/22 01:00:17;;;;;;;3.20;2.97;;;23.40;99.90;;;;;;5005135;28;20691;-76
2021/08/22 01:02:48;;;;;;;2.80;2.53;;;23.40;99.90;;;;;;5004798;28;20232;-76
2021/08/22 01:05:25;;;;;;;3.10;2.90;;;23.40;99.90;;;;;;5004770;28;20278;-77
2021/08/22 01:08:00;;;;;;;3.08;2.78;;;23.30;99.90;;;;;;5001493;28;20641;-76
2021/08/22 01:10:29;;;;;;;2.83;2.63;;;23.30;99.90;;;;;;5001495;28;20231;-76
2021/08/22 01:13:01;;;;;;;3.03;2.83;;;23.30;99.90;;;;;;4997674;28;20227;-76
2021/08/22 01:15:33;;;;;;;3.30;3.00;;;23.30;99.90;;;;;;5002532;28;20247;-76
2021/08/22 01:18:01;;;;;;;4.50;2.90;;;23.30;99.90;;;;;;5003214;28;20223;-77
2021/08/22 01:20:36;;;;;;;4.93;2.67;;;23.20;99.90;;;;;;5002209;28;20300;-76
2021/08/22 01:23:07;;;;;;;3.60;2.92;;;23.20;99.90;;;;;;5005511;28;20235;-76
2021/08/22 01:25:38;;;;;;;3.15;2.95;;;23.20;99.90;;;;;;5002886;28;20239;-77
2021/08/22 01:28:06;;;;;;;3.03;2.70;;;23.20;99.90;;;;;;5003191;28;20244;-77
2021/08/22 01:30:40;;;;;;;3.30;3.00;;;23.20;99.90;;;;;;5005963;28;20228;-76
2021/08/22 01:33:12;;;;;;;3.72;3.10;;;23.20;99.90;;;;;;5000305;28;20227;-75
2021/08/22 01:35:40;;;;;;;2.85;2.60;;;23.20;99.90;;;;;;5003901;28;20228;-76
2021/08/22 01:38:09;;;;;;;3.33;3.03;;;23.10;99.90;;;;;;5001137;28;20243;-76
2021/08/22 01:40:37;;;;;;;3.00;2.75;;;23.10;99.90;;;;;;5003670;28;20228;-76
2021/08/22 01:43:06;;;;;;;3.20;2.90;;;23.10;99.90;;;;;;4998981;28;20228;-76
2021/08/22 01:45:34;;;;;;;3.25;2.60;;;23.10;99.90;;;;;;4999153;28;20229;-78
2021/08/22 01:48:01;;;;;;;3.83;3.20;;;23.00;99.90;;;;;;5004836;28;20684;-76
2021/08/22 01:50:30;;;;;;;4.72;3.50;;;23.00;99.90;;;;;;5003550;28;20598;-76
2021/08/22 01:53:00;;;;;;;3.67;3.38;;;23.00;99.90;;;;;;5004273;28;20294;-76
2021/08/22 01:55:27;;;;;;;3.38;3.08;;;23.00;99.90;;;;;;5004112;28;20233;-76
2021/08/22 01:57:54;;;;;;;2.90;2.58;;;23.00;99.90;;;;;;5002365;28;20228;-77
2021/08/22 02:00:21;;;;;;;2.97;2.67;;;23.00;99.90;;;;;;4997933;28;20263;-75
2021/08/22 02:02:55;;;;;;;3.03;2.80;;;22.90;99.90;;;;;;5001977;28;20224;-77
2021/08/22 02:05:23;;;;;;;3.63;3.22;;;22.90;99.90;;;;;;5000107;28;20233;-75
2021/08/22 02:07:53;;;;;;;3.40;2.80;;;22.90;99.90;;;;;;5005017;28;20231;-76
2021/08/22 02:10:26;;;;;;;3.30;3.10;;;22.90;99.90;;;;;;5005399;28;20237;-77
2021/08/22 02:12:59;;;;;;;2.70;2.50;;;22.90;99.90;;;;;;5004311;28;20233;-76
2021/08/22 02:15:29;;;;;;;3.60;3.30;;;22.80;99.90;;;;;;4999359;28;20310;-76
2021/08/22 02:18:00;;;;;;;3.35;3.05;;;22.80;99.90;;;;;;5005689;28;20220;-76
2021/08/22 02:20:28;;;;;;;3.05;2.80;;;22.80;99.90;;;;;;4999517;28;20278;-77
2021/08/22 02:22:57;;;;;;;3.38;3.08;;;22.80;99.90;;;;;;5001477;28;20579;-75
2021/08/22 02:25:25;;;;;;;4.30;3.40;;;22.80;99.90;;;;;;5002623;28;20232;-76
2021/08/22 02:27:52;;;;;;;3.55;3.25;;;22.80;99.90;;;;;;5000032;28;20672;-76
2021/08/22 02:30:19;;;;;;;3.10;2.83;;;22.70;99.90;;;;;;5003386;28;20224;-75
2021/08/22 02:32:46;;;;;;;3.78;3.28;;;22.70;99.90;;;;;;5001582;28;20232;-75
2021/08/22 02:35:13;;;;;;;4.28;3.30;;;22.70;99.90;;;;;;5006661;28;20632;-76
2021/08/22 02:37:40;;;;;;;3.30;3.00;;;22.70;99.90;;;;;;5002247;28;20224;-76
2021/08/22 02:40:11;;;;;;;2.90;2.63;;;22.70;99.90;;;;;;5001754;28;20230;-77
2021/08/22 02:42:38;;;;;;;4.47;3.25;;;22.70;99.90;;;;;;5008898;28;20216;-77
2021/08/22 02:45:08;;;;;;;3.08;2.88;;;22.70;99.90;;;;;;5006719;28;20236;-76
2021/08/22 02:47:35;;;;;;;3.20;2.90;;;22.70;99.90;;;;;;4998800;28;20267;-76
2021/08/22 02:50:02;;;;;;;3.45;3.15;;;22.60;99.90;;;;;;5001571;28;20232;-76
2021/08/22 02:52:29;;;;;;;3.40;3.10;;;22.60;99.90;;;;;;4998835;28;20291;-77
2021/08/22 02:54:56;;;;;;;3.40;3.10;;;22.60;99.90;;;;;;4996888;28;20235;-76
2021/08/22 02:57:24;;;;;;;3.60;3.30;;;22.60;99.90;;;;;;5002162;28;20228;-76
2021/08/22 02:59:51;;;;;;;3.30;3.00;;;22.60;99.90;;;;;;5002704;28;20270;-76
2021/08/22 03:02:18;;;;;;;3.25;2.60;;;22.60;99.90;;;;;;5001206;28;20216;-77
2021/08/22 03:04:45;;;;;;;3.38;3.08;;;22.60;99.90;;;;;;5003481;28;20225;-76
2021/08/22 03:07:12;;;;;;;3.22;2.92;;;22.60;99.90;;;;;;5004199;28;20228;-76
2021/08/22 03:09:39;;;;;;;4.43;2.95;;;22.60;99.90;;;;;;4998198;28;20536;-76
2021/08/22 03:12:07;;;;;;;3.05;2.85;;;22.60;99.90;;;;;;5001761;28;20224;-76
2021/08/22 03:14:36;;;;;;;3.60;3.08;;;22.60;99.90;;;;;;4997202;28;20227;-76
2021/08/22 03:17:03;;;;;;;3.40;3.10;;;22.60;99.90;;;;;;5002217;28;20232;-76
2021/08/22 03:19:30;;;;;;;3.45;3.15;;;22.50;99.90;;;;;;5000018;28;20251;-76
2021/08/22 03:21:57;;;;;;;3.47;3.17;;;22.50;99.90;;;;;;4999151;28;20624;-76
2021/08/22 03:24:24;;;;;;;3.78;3.47;;;22.40;99.90;;;;;;5000959;28;20227;-78
2021/08/22 03:26:51;;;;;;;3.70;3.25;;;22.40;99.90;;;;;;4998076;28;20275;-76
2021/08/22 03:29:18;;;;;;;3.58;3.22;;;22.40;99.90;;;;;;4994959;28;20714;-76
2021/08/22 03:31:46;;;;;;;3.50;3.20;;;22.40;99.90;;;;;;5001214;28;20224;-76
2021/08/22 03:34:13;;;;;;;3.17;2.83;;;22.40;99.90;;;;;;5013634;28;20227;-76
2021/08/22 03:36:40;;;;;;;3.30;3.00;;;22.40;99.90;;;;;;5002379;28;20231;-76
2021/08/22 03:39:07;;;;;;;5.03;3.20;;;22.40;99.90;;;;;;5004279;28;20224;-77
2021/08/22 03:41:35;;;;;;;3.67;3.38;;;22.40;99.90;;;;;;5001247;28;20286;-76
2021/08/22 03:44:03;;;;;;;3.00;2.80;;;22.40;99.90;;;;;;4999449;28;20691;-76
2021/08/22 03:46:31;;;;;;;3.53;3.22;;;22.30;99.90;;;;;;5002031;28;21086;-75
2021/08/22 03:48:59;;;;;;;3.50;3.20;;;22.30;99.90;;;;;;5001058;28;20749;-77
2021/08/22 03:51:26;;;;;;;3.75;3.28;;;22.30;99.90;;;;;;4998136;28;20533;-76
2021/08/22 03:53:53;;;;;;;3.33;2.97;;;22.30;99.90;;;;;;5001661;28;20311;-76
2021/08/22 03:56:20;;;;;;;3.90;3.25;;;22.30;99.90;;;;;;5014412;23;20238;-73
2021/08/22 03:58:47;;;;;;;3.22;3.03;;;22.30;99.90;;;;;;5019331;28;20277;-73
2021/08/22 04:01:14;;;;;;;4.05;3.58;;;22.30;99.90;;;;;;5020039;28;20214;-72
2021/08/22 04:03:41;;;;;;;4.10;3.47;;;22.30;99.90;;;;;;5020636;28;20325;-74
2021/08/22 04:06:10;;;;;;;3.75;3.45;;;22.30;99.90;;;;;;5022467;28;20239;-73
2021/08/22 04:08:39;;;;;;;3.70;3.40;;;22.30;99.90;;;;;;5016464;28;20235;-73
2021/08/22 04:11:06;;;;;;;3.60;3.30;;;22.30;99.90;;;;;;5017648;28;20809;-73
2021/08/22 04:13:33;;;;;;;3.28;2.97;;;22.30;99.90;;;;;;5017333;28;20235;-74
2021/08/22 04:16:00;;;;;;;3.50;3.20;;;22.30;99.90;;;;;;5022414;28;20644;-75
2021/08/22 04:18:27;;;;;;;4.10;3.10;;;22.20;99.90;;;;;;5021508;28;20581;-75
2021/08/22 04:20:55;;;;;;;4.10;3.33;;;22.00;99.90;;;;;;5020987;28;20219;-75
2021/08/22 04:23:23;;;;;;;5.97;3.58;;;21.90;99.90;;;;;;5015909;28;20905;-76
2021/08/22 04:25:51;;;;;;;3.80;3.40;;;21.80;99.90;;;;;;5016954;28;20216;-76
2021/08/22 04:28:18;;;;;;;3.53;3.22;;;21.80;99.90;;;;;;5017364;28;20219;-74
2021/08/22 04:30:45;;;;;;;3.40;3.05;;;21.70;99.90;;;;;;5020116;28;20228;-75
2021/08/22 04:33:12;;;;;;;3.03;2.83;;;21.70;99.90;;;;;;5017363;28;20231;-75
2021/08/22 04:35:39;;;;;;;3.47;3.17;;;21.70;99.90;;;;;;5014262;28;20277;-75
2021/08/22 04:38:06;;;;;;;3.38;3.08;;;21.60;99.90;;;;;;5016006;28;20223;-75
2021/08/22 04:40:37;;;;;;;3.55;3.22;;;21.60;99.90;;;;;;5017762;28;20276;-76
2021/08/22 04:43:05;;;;;;;3.83;3.25;;;21.50;99.90;;;;;;5018521;28;20227;-75
2021/08/22 04:45:32;;;;;;;4.38;3.35;;;21.40;99.90;;;;;;5019322;28;20250;-76
2021/08/22 04:47:59;;;;;;;3.65;3.35;;;21.30;99.90;;;;;;5020662;28;20227;-76
2021/08/22 04:50:26;;;;;;;3.42;3.13;;;21.30;99.90;;;;;;5018273;28;20640;-74
2021/08/22 04:52:55;;;;;;;3.10;2.90;;;21.40;99.90;;;;;;5019559;28;20605;-75
2021/08/22 04:55:22;;;;;;;3.60;3.28;;;21.40;99.90;;;;;;5018346;28;20231;-75
2021/08/22 04:57:50;;;;;;;3.40;3.10;;;21.40;99.90;;;;;;5013704;28;20223;-76
2021/08/22 05:00:18;;;;;;;3.33;3.13;;;21.40;99.90;;;;;;5019576;28;20293;-75
2021/08/22 05:02:45;;;;;;;3.33;3.05;;;21.40;99.90;;;;;;5018741;28;20357;-75
2021/08/22 05:05:12;;;;;;;2.85;2.65;;;21.40;99.90;;;;;;5019561;28;20633;-76
2021/08/22 05:07:39;;;;;;;3.22;2.92;;;21.50;99.90;;;;;;5013101;28;20230;-76
2021/08/22 05:10:07;;;;;;;3.60;3.30;;;21.60;99.90;;;;;;5019026;28;20889;-75
2021/08/22 05:12:34;;;;;;;3.22;2.92;;;21.60;99.90;;;;;;5019990;28;20284;-75
2021/08/22 05:15:03;;;;;;;3.53;3.22;;;21.70;99.90;;;;;;5020291;28;20285;-76
2021/08/22 05:17:30;;;;;;;3.83;3.08;;;21.70;99.90;;;;;;5018827;28;20686;-76
2021/08/22 05:19:57;;;;;;;2.67;2.47;;;21.70;99.90;;;;;;5016323;28;20277;-76
2021/08/22 05:22:24;;;;;;;3.55;2.83;;;21.70;99.90;;;;;;5024558;28;20273;-75
2021/08/22 05:24:51;;;;;;;3.33;3.03;;;21.80;99.90;;;;;;5023935;28;20278;-76
2021/08/22 05:27:17;;;;;;;3.33;3.03;;;21.80;99.90;;;;;;5018761;28;20850;-75
2021/08/22 05:29:44;;;;;;;5.32;3.58;;;21.90;99.90;;;;;;5013719;28;20216;-75
2021/08/22 05:32:13;;;;;;;3.35;3.05;;;22.00;99.90;;;;;;5018548;28;20230;-75
2021/08/22 05:34:40;;;;;;;3.42;3.13;;;22.10;99.90;;;;;;5019689;28;20694;-74
2021/08/22 05:37:07;;;;;;;6.65;3.40;;;22.20;99.90;;;;;;5015487;28;20227;-75
2021/08/22 05:39:34;;;;;;;2.90;2.70;;;22.30;99.90;;;;;;5018656;28;20596;-75
2021/08/22 05:42:01;;;;;;;3.58;3.28;;;22.50;99.90;;;;;;5019086;28;20733;-76
2021/08/22 05:44:28;;;;;;;3.40;3.10;;;22.60;99.90;;;;;;5020260;28;20227;-75
2021/08/22 05:46:55;;;;;;;4.80;3.85;;;22.90;99.90;;;;;;5022446;28;20227;-78
2021/08/22 05:49:23;;;;;;;4.05;3.75;;;23.10;99.90;;;;;;5022182;28;20219;-78
2021/08/22 05:51:50;;;;;;;4.20;3.80;;;23.20;99.90;;;;;;5023434;28;20265;-78
2021/08/22 05:54:17;;;;;;;4.18;3.78;;;23.30;99.90;;;;;;5023169;28;20223;-76
2021/08/22 05:56:44;;;;;;;4.00;3.70;;;23.40;99.90;;;;;;5025111;28;20231;-75
2021/08/22 05:59:11;;;;;;;5.30;4.15;;;23.50;99.90;;;;;;5022427;28;20261;-76
2021/08/22 06:01:38;;;;;;;3.97;3.67;;;23.50;99.90;;;;;;5018136;28;20285;-75
2021/08/22 06:04:05;;;;;;;4.22;3.83;;;23.30;99.90;;;;;;5021535;28;20235;-76
2021/08/22 06:06:34;;;;;;;3.97;3.67;;;23.20;99.90;;;;;;5020609;28;20815;-78
2021/08/22 06:09:01;;;;;;;4.32;3.92;;;23.10;99.90;;;;;;5025873;28;20219;-77
2021/08/22 06:11:28;;;;;;;4.50;4.10;;;23.20;99.90;;;;;;5020713;28;20629;-78
2021/08/22 06:13:55;;;;;;;3.92;3.63;;;23.00;99.90;;;;;;5022856;28;20254;-78
2021/08/22 06:16:22;;;;;;;4.13;3.72;;;22.70;99.90;;;;;;5017961;28;20223;-78
2021/08/22 06:18:49;;;;;;;3.90;3.60;;;22.80;99.90;;;;;;5020460;28;20227;-78
2021/08/22 06:21:16;;;;;;;3.75;3.40;;;23.10;99.90;;;;;;5022533;28;20725;-78
2021/08/22 06:23:44;;;;;;;3.70;3.40;;;23.50;99.90;;;;;;5020619;28;20279;-77
2021/08/22 06:26:11;;;;;;;5.13;3.70;;;23.90;99.90;;;;;;5017825;28;20278;-78
2021/08/22 06:28:38;;;;;;;4.28;3.88;;;24.20;99.90;;;;;;5018764;28;20227;-76
2021/08/22 06:31:05;;;;;;;4.60;4.20;;;24.40;99.90;;;;;;5016332;28;20231;-76
2021/08/22 06:33:32;;;;;;;4.75;4.35;;;24.40;99.90;;;;;;5019283;28;20741;-78
2021/08/22 06:36:00;;;;;;;4.40;4.03;;;24.40;99.90;;;;;;5022480;28;21010;-78
2021/08/22 06:38:27;;;;;;;5.60;4.60;;;24.30;99.90;;;;;;5019572;28;20226;-79
2021/08/22 06:40:56;;;;;;;4.68;4.10;;;24.20;99.90;;;;;;5022312;28;20337;-78
2021/08/22 06:43:23;;;;;;;4.88;4.47;;;24.30;99.90;;;;;;5019900;28;20227;-78
2021/08/22 06:45:50;;;;;;;5.47;4.30;;;24.40;99.90;;;;;;5023834;28;20273;-78
2021/08/22 06:48:17;;;;;;;4.88;4.38;;;24.40;99.90;;;;;;5025615;28;20220;-78
2021/08/22 06:50:44;;;;;;;5.35;4.85;;;24.40;99.90;;;;;;5023975;28;20228;-78
2021/08/22 06:53:12;;;;;;;5.95;4.80;;;24.60;99.90;;;;;;5018743;28;20306;-78
2021/08/22 06:55:41;;;;;;;5.47;5.03;;;24.80;99.90;;;;;;5020394;28;20736;-77
2021/08/22 06:58:10;;;;;;;5.03;4.55;;;24.80;99.90;;;;;;5019444;28;20223;-77
2021/08/22 07:00:37;;;;;;;6.93;4.82;;;24.80;99.90;;;;;;5021500;28;20629;-78
2021/08/22 07:03:04;;;;;;;6.38;4.95;;;24.90;99.90;;;;;;5022357;28;20649;-78
2021/08/22 07:05:31;;;;;;;5.43;4.55;;;24.80;99.90;;;;;;5021541;28;20235;-78
2021/08/22 07:07:58;;;;;;;4.45;4.15;;;24.90;99.90;;;;;;5024108;28;20227;-78
2021/08/22 07:10:25;;;;;;;5.35;4.90;;;24.80;99.90;;;;;;5020968;28;20230;-78
2021/08/22 07:12:52;;;;;;;5.32;4.85;;;24.90;99.90;;;;;;5016812;28;20608;-78
2021/08/22 07:15:20;;;;;;;4.60;4.20;;;25.00;99.90;;;;;;5021880;28;20227;-78
2021/08/22 07:17:47;;;;;;;5.13;4.13;;;25.10;99.90;;;;;;5016863;28;20282;-78
2021/08/22 07:20:14;;;;;;;5.80;5.30;;;25.40;99.90;;;;;;5023129;28;20748;-78
2021/08/22 07:22:41;;;;;;;4.60;4.18;;;25.50;99.90;;;;;;5024348;28;20228;-78
2021/08/22 07:25:09;;;;;;;5.03;4.63;;;25.60;99.90;;;;;;5018127;28;20281;-78
2021/08/22 07:27:36;;;;;;;5.35;4.85;;;25.80;99.90;;;;;;5017520;28;20227;-78
2021/08/22 07:30:04;;;;;;;5.15;4.65;;;25.80;99.90;;;;;;5022265;28;20228;-78
2021/08/22 07:32:32;;;;;;;5.55;4.78;;;25.70;99.90;;;;;;5022359;28;20231;-78
2021/08/22 07:34:59;;;;;;;5.20;4.70;;;25.50;99.90;;;;;;5024150;28;20599;-78
2021/08/22 07:37:27;;;;;;;5.20;4.70;;;25.00;99.90;;;;;;5022500;28;20227;-78
2021/08/22 07:39:53;;;;;;;5.05;4.65;;;24.90;99.90;;;;;;5019926;28;20226;-79
2021/08/22 07:42:20;;;;;;;4.88;4.38;;;24.80;99.90;;;;;;5022859;28;20219;-76
2021/08/22 07:44:48;;;;;;;4.70;4.30;;;25.10;99.90;;;;;;5021492;28;20231;-79
2021/08/22 07:47:15;;;;;;;5.70;5.20;;;25.40;99.90;;;;;;5024118;28;20234;-78
2021/08/22 07:49:43;;;;;;;7.60;4.55;;;25.70;99.90;;;;;;5019988;28;20215;-78
2021/08/22 07:52:10;;;;;;;5.03;4.63;;;26.00;99.90;;;;;;5017871;28;20223;-78
2021/08/22 07:54:37;;;;;;;6.45;5.00;;;26.20;99.90;;;;;;5019522;28;20231;-78
2021/08/22 07:57:05;;;;;;;4.60;4.20;;;26.40;99.90;;;;;;5017547;28;20231;-78
2021/08/22 07:59:32;;;;;;;4.38;3.97;;;26.40;99.90;;;;;;5022362;28;20224;-75
2021/08/22 08:01:59;;;;;;;5.20;4.60;;;26.70;99.90;;;;;;5023186;28;20247;-76
2021/08/22 08:04:26;;;;;;;6.15;4.43;;;26.80;99.90;;;;;;5022547;28;20698;-75
2021/08/22 08:06:54;;;;;;;4.88;4.47;;;26.90;99.90;;;;;;5024097;28;20239;-74
2021/08/22 08:09:21;;;;;;;5.13;4.63;;;26.70;99.90;;;;;;5023321;28;21110;-75
2021/08/22 08:11:48;;;;;;;5.18;4.45;;;26.70;99.90;;;;;;5018832;28;20710;-75
2021/08/22 08:14:15;;;;;;;5.13;4.60;;;26.70;99.90;;;;;;5024824;28;20231;-75
2021/08/22 08:16:42;;;;;;;5.65;4.82;;;26.60;99.90;;;;;;5023409;28;20227;-75
2021/08/22 08:19:09;;;;;;;5.47;4.90;;;26.70;99.90;;;;;;5020702;28;20227;-75
2021/08/22 08:21:37;;;;;;;4.95;4.55;;;26.70;99.90;;;;;;5022399;28;20322;-75
2021/08/22 08:24:06;;;;;;;4.80;4.40;;;26.70;99.90;;;;;;5020919;28;20467;-78
2021/08/22 08:26:33;;;;;;;5.93;4.68;;;26.70;99.90;;;;;;5021337;28;20781;-78
2021/08/22 08:29:00;;;;;;;5.00;4.50;;;26.80;99.90;;;;;;5023781;28;20238;-77
2021/08/22 08:31:27;;;;;;;5.95;4.78;;;26.70;99.90;;;;;;5023799;28;20219;-79
2021/08/22 08:33:54;;;;;;;5.32;4.82;;;26.70;99.90;;;;;;5021565;28;22276;-78
2021/08/22 08:36:21;;;;;;;4.95;4.50;;;26.70;99.90;;;;;;5020494;28;20722;-77
2021/08/22 08:38:48;;;;;;;4.95;4.38;;;26.90;99.90;;;;;;5021767;28;20278;-78
2021/08/22 08:41:16;;;;;;;5.35;4.57;;;26.90;99.90;;;;;;5018775;28;20219;-78
2021/08/22 08:43:46;;;;;;;5.75;4.57;;;26.90;99.90;;;;;;5022117;28;20219;-76
2021/08/22 08:46:14;;;;;;;5.45;4.95;;;27.00;99.90;;;;;;5022454;28;20306;-76
2021/08/22 08:48:41;;;;;;;5.47;4.82;;;27.10;99.90;;;;;;5021407;28;20230;-76
2021/08/22 08:51:28;;;;;;;5.93;4.85;;;27.20;99.90;;;;;;5020439;28;20227;-76
2021/08/22 08:53:56;;;;;;;4.75;4.25;;;27.30;99.90;;;;;;5018262;28;20277;-76
2021/08/22 08:56:25;;;;;;;4.85;4.45;;;27.60;99.90;;;;;;5022169;28;20234;-75
2021/08/22 08:58:52;;;;;;;5.25;4.85;;;27.60;99.90;;;;;;5016567;28;20216;-76
2021/08/22 09:01:19;;;;;;;8.23;5.10;;;27.50;99.90;;;;;;5020383;28;20277;-75
2021/08/22 09:04:12;;;;;;;5.80;4.68;;;27.40;99.90;;;;;;5016894;28;20223;-77
2021/08/22 09:07:16;;;;;;;5.07;4.57;;;27.20;99.90;;;;;;5017853;28;20228;-75
2021/08/22 09:10:28;;;;;;;5.07;4.57;;;27.10;99.90;;;;;;5010011;28;20215;-74
2021/08/22 09:13:32;;;;;;;6.13;4.95;;;27.00;99.90;;;;;;5015028;28;20713;-74
2021/08/22 09:16:35;;;;;;;4.53;4.15;;;26.90;99.90;;;;;;5020028;28;20701;-74
2021/08/22 09:19:49;;;;;;;5.72;5.22;;;26.80;99.90;;;;;;5018793;28;20223;-74
2021/08/22 09:22:53;;;;;;;5.22;4.72;;;26.90;99.90;;;;;;4995010;28;20265;-78
2021/08/22 09:26:00;;;;;;;6.00;4.25;;;26.80;99.90;;;;;;5022796;28;20800;-77
2021/08/22 09:29:15;;;;;;;4.50;4.13;;;26.70;99.90;;;;;;5020212;28;20691;-77
2021/08/22 09:32:19;;;;;;;4.60;4.20;;;26.60;99.90;;;;;;5022180;28;20324;-74
2021/08/22 09:35:19;;;;;;;4.50;4.20;;;26.60;99.90;;;;;;5020236;28;20223;-74
2021/08/22 09:38:28;;;;;;;5.57;4.40;;;26.90;99.90;;;;;;5024662;28;20224;-74
2021/08/22 09:41:32;;;;;;;5.82;5.28;;;27.40;99.90;;;;;;5018217;28;20682;-74
2021/08/22 09:44:40;;;;;;;5.97;5.45;;;28.10;99.90;;;;;;5019928;28;20235;-74
2021/08/22 09:47:50;;;;;;;4.60;4.20;;;28.20;99.90;;;;;;4976198;28;20232;-77
2021/08/22 09:50:50;;;;;;;5.45;4.38;;;28.10;99.90;;;;;;5023489;28;20223;-78
2021/08/22 09:53:50;;;;;;;5.57;4.55;;;28.30;99.90;;;;;;5024019;28;20226;-77
2021/08/22 09:56:59;;;;;;;5.43;4.93;;;28.20;99.90;;;;;;5010438;28;20231;-75
2021/08/22 10:00:00;;;;;;;5.05;4.60;;;28.00;99.90;;;;;;5163558;23;20227;-76
2021/08/22 10:03:13;;;;;;;7.95;5.32;;;27.80;99.90;;;;;;4974021;28;20219;-77
2021/08/22 10:06:07;;;;;;;5.80;5.30;;;27.60;99.90;;;;;;4942577;28;20222;-76
2021/08/22 10:08:39;;;;;;;5.22;4.72;;;27.80;99.90;;;;;;4946635;28;20235;-76
2021/08/22 10:11:07;;;;;;;5.80;5.18;;;28.00;99.90;;;;;;4986661;28;20235;-76
2021/08/22 10:13:38;;;;;;;5.22;4.80;;;28.30;99.90;;;;;;5003834;28;20228;-76
2021/08/22 10:16:05;;;;;;;5.57;5.00;;;28.50;99.90;;;;;;5010639;28;20224;-77
2021/08/22 10:18:34;;;;;;;5.45;5.05;;;28.60;99.90;;;;;;5009903;28;20236;-76
2021/08/22 10:21:02;;;;;;;6.38;5.22;;;28.50;99.90;;;;;;4992963;28;20224;-76
2021/08/22 10:23:53;;;;;;;6.93;5.38;;;28.40;99.90;;;;;;5006357;28;20671;-76
2021/08/22 10:26:56;;;;;;;6.35;4.97;;;28.40;99.90;;;;;;4998343;28;20299;-76
2021/08/22 10:30:18;;;;;;;5.60;5.10;;;28.50;99.90;;;;;;5003062;28;20227;-76
2021/08/22 10:33:11;;;;;;;5.63;5.03;;;28.60;99.90;;;;;;4971690;28;20228;-77
2021/08/22 10:35:39;;;;;;;5.47;4.95;;;28.80;99.90;;;;;;4989338;28;20646;-76
2021/08/22 10:38:23;;;;;;;5.28;4.82;;;28.90;99.90;;;;;;4984634;28;20237;-76
2021/08/22 10:40:53;;;;;;;6.00;5.40;;;28.90;99.90;;;;;;4989576;28;20231;-77
2021/08/22 10:43:38;;;;;;;6.03;4.90;;;29.00;99.90;;;;;;5001008;28;20213;-77
2021/08/22 10:46:05;;;;;;;6.72;5.38;;;29.00;99.90;;;;;;5000306;28;20710;-77
2021/08/22 10:48:52;;;;;;;7.63;5.57;;;29.00;99.90;;;;;;4989681;28;20229;-77
2021/08/22 10:51:20;;;;;;;5.15;4.55;;;28.90;99.90;;;;;;4989055;28;20227;-77
2021/08/22 10:53:52;;;;;;;5.13;4.72;;;28.70;99.90;;;;;;4996407;28;20227;-77
2021/08/22 10:56:40;;;;;;;5.47;4.95;;;28.50;99.90;;;;;;4994474;28;20221;-79
2021/08/22 10:59:11;;;;;;;7.80;5.38;;;28.40;99.90;;;;;;4991878;28;20232;-76
2021/08/22 11:01:41;;;;;;;5.22;4.82;;;28.30;99.90;;;;;;4990947;28;20662;-77
2021/08/22 11:04:10;;;;;;;4.90;4.60;;;28.40;99.90;;;;;;5008064;28;20229;-78
2021/08/22 11:06:39;;;;;;;5.32;4.82;;;28.40;99.90;;;;;;4983253;28;20229;-80
2021/08/22 11:09:06;;;;;;;5.00;4.60;;;28.30;99.90;;;;;;5000040;28;20247;-77
2021/08/22 11:11:33;;;;;;;5.28;4.82;;;28.00;99.90;;;;;;5004404;28;20221;-77
2021/08/22 11:14:02;;;;;;;5.25;4.38;;;27.90;99.90;;;;;;4995224;28;20231;-77
2021/08/22 11:16:45;;;;;;;5.22;4.72;;;27.90;99.90;;;;;;4999021;28;20229;-77
2021/08/22 11:19:13;;;;;;;5.28;4.78;;;27.90;99.90;;;;;;4990178;28;20225;-77
2021/08/22 11:21:40;;;;;;;5.18;4.68;;;28.00;99.90;;;;;;4997409;28;20599;-76
2021/08/22 11:24:08;;;;;;;4.15;3.85;;;28.00;99.90;;;;;;4993976;28;20232;-77
2021/08/22 11:26:35;;;;;;;4.88;4.47;;;27.90;99.90;;;;;;4985956;28;20227;-76
2021/08/22 11:29:05;;;;;;;5.30;4.75;;;27.80;99.90;;;;;;4984476;28;20290;-77
2021/08/22 11:31:33;;;;;;;5.53;4.93;;;27.70;99.90;;;;;;4989574;28;20610;-77
2021/08/22 11:34:11;;;;;;;5.65;4.68;;;27.60;99.90;;;;;;5000624;28;20228;-77
2021/08/22 11:36:39;;;;;;;4.95;4.55;;;27.40;99.90;;;;;;4994758;28;20295;-77
2021/08/22 11:39:16;;;;;;;4.85;4.45;;;27.40;99.90;;;;;;4990163;28;20717;-76
2021/08/22 11:41:48;;;;;;;5.95;5.45;;;27.50;99.90;;;;;;4984656;28;20223;-77
2021/08/22 11:44:23;;;;;;;7.20;5.05;;;27.50;99.90;;;;;;4990152;28;20226;-77
2021/08/22 11:46:51;;;;;;;5.18;4.65;;;27.70;99.90;;;;;;4985390;28;20746;-77
2021/08/22 11:49:19;;;;;;;5.07;4.68;;;28.00;99.90;;;;;;4980940;28;20738;-78
2021/08/22 11:51:51;;;;;;;5.47;4.97;;;28.00;99.90;;;;;;4989401;28;20620;-79
2021/08/22 11:54:18;;;;;;;5.25;4.85;;;27.90;99.90;;;;;;4988452;28;20248;-76
2021/08/22 11:56:46;;;;;;;5.65;5.13;;;27.80;99.90;;;;;;4998396;28;20229;-77
2021/08/22 11:59:35;;;;;;;5.30;4.70;;;27.80;99.90;;;;;;4993876;28;20229;-76
2021/08/22 12:02:19;;;;;;;5.80;4.50;;;27.60;99.90;;;;;;4983184;28;20684;-77
2021/08/22 12:04:47;;;;;;;5.18;4.68;;;27.40;99.90;;;;;;4990190;28;20254;-76
2021/08/22 12:07:14;;;;;;;5.50;5.00;;;27.30;99.90;;;;;;4987294;28;20607;-76
2021/08/22 12:09:50;;;;;;;5.50;5.00;;;27.10;99.90;;;;;;4985317;28;20291;-79
2021/08/22 12:12:21;;;;;;;4.65;4.25;;;27.00;99.90;;;;;;4984300;28;20221;-76
2021/08/22 12:14:50;;;;;;;4.82;4.43;;;26.90;99.90;;;;;;4990289;28;20216;-77
2021/08/22 12:17:23;;;;;;;6.07;4.80;;;26.80;99.90;;;;;;4989777;28;20224;-77
2021/08/22 12:19:51;;;;;;;4.38;4.07;;;26.80;99.90;;;;;;4992221;28;20255;-77
2021/08/22 12:22:18;;;;;;;4.80;4.40;;;26.70;99.90;;;;;;4995652;28;20223;-77
2021/08/22 12:24:46;;;;;;;5.05;4.55;;;26.70;99.90;;;;;;4989046;28;20220;-77
2021/08/22 12:27:26;;;;;;;4.82;4.43;;;26.50;99.90;;;;;;4984941;28;20275;-75
2021/08/22 12:30:08;;;;;;;5.78;4.53;;;26.40;99.90;;;;;;4988886;28;20247;-75
2021/08/22 12:32:36;;;;;;;5.20;4.70;;;26.30;99.90;;;;;;4983061;28;20232;-75
2021/08/22 12:35:05;;;;;;;4.35;4.00;;;26.20;99.90;;;;;;4988576;28;20315;-75
2021/08/22 12:37:32;;;;;;;4.00;3.70;;;26.10;99.90;;;;;;4982821;28;20283;-75
2021/08/22 12:40:00;;;;;;;4.43;4.13;;;26.10;99.90;;;;;;4984999;28;20232;-74
2021/08/22 12:42:27;;;;;;;4.40;3.60;;;26.10;99.90;;;;;;4982830;28;20224;-73
2021/08/22 12:44:55;;;;;;;3.63;3.33;;;26.20;99.90;;;;;;4980168;28;20295;-75
2021/08/22 12:47:24;;;;;;;4.45;3.83;;;26.30;99.90;;;;;;4987323;28;20241;-75
2021/08/22 12:49:51;;;;;;;5.07;3.95;;;26.30;99.90;;;;;;4976894;28;20790;-75
2021/08/22 12:52:18;;;;;;;4.93;4.20;;;26.40;99.90;;;;;;4981874;28;20274;-73
2021/08/22 12:54:45;;;;;;;4.78;3.90;;;26.40;99.90;;;;;;4978253;28;20982;-75
2021/08/22 12:57:12;;;;;;;4.10;3.80;;;26.50;99.90;;;;;;4982774;28;20315;-76
2021/08/22 12:59:40;;;;;;;5.10;4.60;;;26.80;99.90;;;;;;4986703;28;20225;-74
2021/08/22 13:02:07;;;;;;;4.65;4.20;;;27.10;99.90;;;;;;4981678;28;20220;-76
2021/08/22 13:04:35;;;;;;;5.30;4.80;;;27.40;99.90;;;;;;4981280;28;20272;-75
2021/08/22 13:07:03;;;;;;;5.50;4.93;;;27.70;99.90;;;;;;4978961;28;20630;-74
2021/08/22 13:09:30;;;;;;;5.30;4.82;;;27.90;99.90;;;;;;4981189;28;20237;-75